createdAt,value
2019-04-11T00:00:09.081Z,3.94
2019-04-11T00:01:10.028Z,3.92
2019-04-11T00:02:08.899Z,3.92
2019-04-11T00:03:09.199Z,3.80
2019-04-11T00:04:08.837Z,3.91
2019-04-11T00:05:08.841Z,3.80
2019-04-11T00:06:09.579Z,3.80
2019-04-11T00:07:08.858Z,3.90
2019-04-11T00:08:10.045Z,3.84
2019-04-11T00:09:08.811Z,3.85
2019-04-11T00:10:08.780Z,3.91
2019-04-11T00:11:09.442Z,3.80
2019-04-11T00:12:08.776Z,3.82
2019-04-11T00:13:17.265Z,3.91
2019-04-11T00:14:10.323Z,3.81
2019-04-11T00:15:08.731Z,3.76
2019-04-11T00:16:08.884Z,3.81
2019-04-11T00:17:09.650Z,3.74
2019-04-11T00:18:08.737Z,3.78
2019-04-11T00:19:09.421Z,3.78
2019-04-11T00:20:09.674Z,3.72
2019-04-11T00:21:08.793Z,3.81
2019-04-11T00:22:09.006Z,3.72
2019-04-11T00:23:08.678Z,3.72
2019-04-11T00:24:08.625Z,3.78
2019-04-11T00:25:09.473Z,3.70
2019-04-11T00:26:08.613Z,3.80
2019-04-11T00:27:08.758Z,3.69
2019-04-11T00:28:09.727Z,3.72
2019-04-11T00:29:08.593Z,3.74
2019-04-11T00:30:08.564Z,3.64
2019-04-11T00:31:08.564Z,3.56
2019-04-11T00:32:09.673Z,3.69
2019-04-11T00:33:09.729Z,3.63
2019-04-11T00:34:08.893Z,3.69
2019-04-11T00:35:09.224Z,3.62
2019-04-11T00:36:08.507Z,3.55
2019-04-11T00:37:08.658Z,3.51
2019-04-11T00:38:09.705Z,3.54
2019-04-11T00:39:08.499Z,3.64
2019-04-11T00:40:08.970Z,3.54
2019-04-11T00:41:08.450Z,3.62
2019-04-11T00:42:08.445Z,3.54
2019-04-11T00:43:09.471Z,3.60
2019-04-11T00:44:08.426Z,3.59
2019-04-11T00:45:09.508Z,3.62
2019-04-11T00:46:08.395Z,3.64
2019-04-11T00:47:08.928Z,3.51
2019-04-11T00:48:09.242Z,3.64
2019-04-11T00:49:08.385Z,3.60
2019-04-11T00:50:08.360Z,3.59
2019-04-11T00:51:08.334Z,3.63
2019-04-11T00:52:08.937Z,3.51
2019-04-11T00:53:08.348Z,3.51
2019-04-11T00:54:08.770Z,3.48
2019-04-11T00:55:08.305Z,3.60
2019-04-11T00:56:09.740Z,3.59
2019-04-11T00:57:08.516Z,3.56
2019-04-11T00:58:08.292Z,3.49
2019-04-11T00:59:08.253Z,3.55
2019-04-11T01:00:09.039Z,3.55
2019-04-11T01:01:09.163Z,3.48
2019-04-11T01:02:09.388Z,3.59
2019-04-11T01:03:08.203Z,3.55
2019-04-11T01:04:08.186Z,3.36
2019-04-11T01:05:08.184Z,3.51
2019-04-11T01:06:08.176Z,3.45
2019-04-11T01:07:08.910Z,3.48
2019-04-11T01:08:08.321Z,3.42
2019-04-11T01:09:08.282Z,3.42
2019-04-11T01:10:08.111Z,3.41
2019-04-11T01:11:08.118Z,3.42
2019-04-11T01:12:08.151Z,3.35
2019-04-11T01:13:09.145Z,3.41
2019-04-11T01:14:08.080Z,3.37
2019-04-11T01:15:08.129Z,3.35
2019-04-11T01:16:09.100Z,3.35
2019-04-11T01:17:09.322Z,3.30
2019-04-11T01:18:08.043Z,3.37
2019-04-11T01:19:08.762Z,3.45
2019-04-11T01:20:08.157Z,3.35
2019-04-11T01:21:08.252Z,3.37
2019-04-11T01:22:08.261Z,3.35
2019-04-11T01:23:08.952Z,3.37
2019-04-11T01:24:09.237Z,3.25
2019-04-11T01:25:08.428Z,3.42
2019-04-11T01:26:08.707Z,3.29
2019-04-11T01:27:07.956Z,3.32
2019-04-11T01:28:07.979Z,3.37
2019-04-11T01:29:07.918Z,3.36
2019-04-11T01:30:08.181Z,3.27
2019-04-11T01:31:07.907Z,3.23
2019-04-11T01:32:08.372Z,3.30
2019-04-11T01:33:07.890Z,3.30
2019-04-11T01:34:08.578Z,3.32
2019-04-11T01:35:08.863Z,3.36
2019-04-11T01:36:08.869Z,3.29
2019-04-11T01:37:07.815Z,3.17
2019-04-11T01:38:08.275Z,3.15
2019-04-11T01:39:08.489Z,3.25
2019-04-11T01:40:07.873Z,3.30
2019-04-11T01:41:07.785Z,3.25
2019-04-11T01:42:09.051Z,3.20
2019-04-11T01:43:08.110Z,3.18
2019-04-11T01:44:08.949Z,3.22
2019-04-11T01:45:07.735Z,3.17
2019-04-11T01:46:07.797Z,3.20
2019-04-11T01:47:08.727Z,3.26
2019-04-11T01:48:07.709Z,3.23
2019-04-11T01:49:08.099Z,3.17
2019-04-11T01:50:08.452Z,3.15
2019-04-11T01:51:09.608Z,3.22
2019-04-11T01:52:07.662Z,3.14
2019-04-11T01:53:08.852Z,3.12
2019-04-11T01:54:07.787Z,3.11
2019-04-11T01:55:08.262Z,3.23
2019-04-11T01:56:07.613Z,3.14
2019-04-11T01:57:07.636Z,3.15
2019-04-11T01:58:08.613Z,3.15
2019-04-11T01:59:07.559Z,3.09
2019-04-11T02:00:08.038Z,3.26
2019-04-11T02:01:08.349Z,3.22
2019-04-11T02:02:07.576Z,2.99
2019-04-11T02:03:08.763Z,3.11
2019-04-11T02:04:07.736Z,3.08
2019-04-11T02:05:08.352Z,3.04
2019-04-11T02:06:07.683Z,2.94
2019-04-11T02:07:07.515Z,3.04
2019-04-11T02:08:07.493Z,3.04
2019-04-11T02:09:08.073Z,2.97
2019-04-11T02:10:08.450Z,2.96
2019-04-11T02:11:08.197Z,2.94
2019-04-11T02:12:07.522Z,2.82
2019-04-11T02:13:07.876Z,2.84
2019-04-11T02:14:14.106Z,2.79
2019-04-11T02:15:08.410Z,2.73
2019-04-11T02:16:08.429Z,2.82
2019-04-11T02:17:08.470Z,2.79
2019-04-11T02:18:07.624Z,2.82
2019-04-11T02:19:07.934Z,2.84
2019-04-11T02:20:07.346Z,2.79
2019-04-11T02:21:07.334Z,2.86
2019-04-11T02:22:07.861Z,2.84
2019-04-11T02:23:07.310Z,2.90
2019-04-11T02:24:07.839Z,2.87
2019-04-11T02:25:08.111Z,2.79
2019-04-11T02:26:07.292Z,2.78
2019-04-11T02:27:08.501Z,2.79
2019-04-11T02:28:08.498Z,2.91
2019-04-11T02:29:07.266Z,2.84
2019-04-11T02:30:08.803Z,2.91
2019-04-11T02:31:09.672Z,2.81
2019-04-11T02:32:07.563Z,2.82
2019-04-11T02:33:09.402Z,2.82
2019-04-11T02:34:08.648Z,2.79
2019-04-11T02:35:08.505Z,2.79
2019-04-11T02:36:07.977Z,2.86
2019-04-11T02:37:07.227Z,2.82
2019-04-11T02:38:08.017Z,2.81
2019-04-11T02:39:12.142Z,2.71
2019-04-11T02:40:08.219Z,2.73
2019-04-11T02:41:08.574Z,2.69
2019-04-11T02:42:08.812Z,2.84
2019-04-11T02:43:09.078Z,2.71
2019-04-11T02:44:26.520Z,2.72
2019-04-11T02:45:22.409Z,2.71
2019-04-11T02:46:17.549Z,2.76
2019-04-11T02:47:13.701Z,2.75
2019-04-11T02:48:10.070Z,2.66
2019-04-11T02:49:08.122Z,2.78
2019-04-11T02:50:08.184Z,2.65
2019-04-11T02:51:07.628Z,2.79
2019-04-11T02:52:07.324Z,2.72
2019-04-11T02:53:07.302Z,2.68
2019-04-11T02:54:07.735Z,2.66
2019-04-11T02:55:09.702Z,2.60
2019-04-11T02:56:09.278Z,2.71
2019-04-11T02:57:07.940Z,2.75
2019-04-11T02:58:07.803Z,2.73
2019-04-11T02:59:06.946Z,2.69
2019-04-11T03:01:31.929Z,2.65
2019-04-11T03:02:24.378Z,2.60
2019-04-11T03:03:25.160Z,2.53
2019-04-11T03:04:24.359Z,2.54
2019-04-11T03:05:24.644Z,2.58
2019-04-11T03:06:23.601Z,2.61
2019-04-11T03:07:24.731Z,2.53
2019-04-11T03:08:24.702Z,2.50
2019-04-11T03:09:24.146Z,2.53
2019-04-11T03:10:24.860Z,2.65
2019-04-11T03:11:25.312Z,2.54
2019-04-11T03:12:24.154Z,2.47
2019-04-11T03:13:25.250Z,2.50
2019-04-11T03:14:23.490Z,2.50
2019-04-11T03:15:37.694Z,2.58
2019-04-11T03:16:35.309Z,2.53
2019-04-11T03:17:30.790Z,2.58
2019-04-11T03:18:40.334Z,2.60
2019-04-11T03:19:37.557Z,2.50
2019-04-11T03:20:33.711Z,2.55
2019-04-11T03:21:26.880Z,2.51
2019-04-11T03:22:24.737Z,2.48
2019-04-11T03:23:24.962Z,2.57
2019-04-11T03:24:24.470Z,2.51
2019-04-11T03:25:24.597Z,2.51
2019-04-11T03:26:24.931Z,2.42
2019-04-11T03:27:25.989Z,2.48
2019-04-11T03:28:27.516Z,2.37
2019-04-11T03:29:26.184Z,2.36
2019-04-11T03:30:34.921Z,2.36
2019-04-11T03:32:05.866Z,2.36
2019-04-11T03:33:18.311Z,2.35
2019-04-11T03:34:15.780Z,2.32
2019-04-11T03:35:12.320Z,2.36
2019-04-11T03:37:49.893Z,2.18
2019-04-11T03:38:46.900Z,2.29
2019-04-11T03:39:45.824Z,2.21
2019-04-11T03:40:43.842Z,2.18
2019-04-11T03:41:37.302Z,2.24
2019-04-11T03:42:39.759Z,2.21
2019-04-11T03:43:35.494Z,2.19
2019-04-11T03:44:31.444Z,2.19
2019-04-11T03:45:45.306Z,2.22
2019-04-11T03:46:37.711Z,2.21
2019-04-11T03:47:38.891Z,2.17
2019-04-11T03:48:39.814Z,2.14
2019-04-11T03:49:32.811Z,2.18
2019-04-11T03:50:28.006Z,2.18
2019-04-11T03:51:25.748Z,2.24
2019-04-11T03:52:23.764Z,2.15
2019-04-11T03:53:25.412Z,2.24
2019-04-11T03:54:23.203Z,2.12
2019-04-11T03:55:23.408Z,2.15
2019-04-11T03:56:24.412Z,2.11
2019-04-11T03:57:23.629Z,2.07
2019-04-11T03:58:23.831Z,2.03
2019-04-11T03:59:23.753Z,2.07
2019-04-11T04:00:24.751Z,2.10
2019-04-11T04:01:25.160Z,2.04
2019-04-11T04:02:24.559Z,2.03
2019-04-11T04:03:24.350Z,2.00
2019-04-11T04:04:23.859Z,1.99
2019-04-11T04:05:23.821Z,2.01
2019-04-11T04:06:23.409Z,1.95
2019-04-11T04:07:23.490Z,1.93
2019-04-11T04:08:24.596Z,1.93
2019-04-11T04:09:24.094Z,1.84
2019-04-11T04:10:23.615Z,1.84
2019-04-11T04:11:26.603Z,1.92
2019-04-11T04:12:22.896Z,1.89
2019-04-11T04:13:24.777Z,1.85
2019-04-11T04:14:24.279Z,1.91
2019-04-11T04:15:35.773Z,1.92
2019-04-11T04:16:31.073Z,1.93
2019-04-11T04:17:25.350Z,1.91
2019-04-11T04:18:23.908Z,1.87
2019-04-11T04:19:24.870Z,1.84
2019-04-11T04:20:24.552Z,1.75
2019-04-11T04:21:24.644Z,1.78
2019-04-11T04:22:24.546Z,1.75
2019-04-11T04:23:22.794Z,1.84
2019-04-11T04:24:22.894Z,1.80
2019-04-11T04:25:24.277Z,1.78
2019-04-11T04:26:22.883Z,1.73
2019-04-11T04:27:25.480Z,1.77
2019-04-11T04:28:23.722Z,1.74
2019-04-11T04:29:25.126Z,1.66
2019-04-11T04:30:24.525Z,1.63
2019-04-11T04:31:24.310Z,1.69
2019-04-11T04:32:23.687Z,1.75
2019-04-11T04:33:23.230Z,1.66
2019-04-11T04:34:23.898Z,1.62
2019-04-11T04:35:24.104Z,1.62
2019-04-11T04:36:24.592Z,1.63
2019-04-11T04:37:24.835Z,1.62
2019-04-11T04:38:23.557Z,1.53
2019-04-11T04:39:23.412Z,1.62
2019-04-11T04:40:38.893Z,1.57
2019-04-11T04:41:35.058Z,1.63
2019-04-11T04:42:31.160Z,1.63
2019-04-11T04:43:25.069Z,1.48
2019-04-11T04:44:24.189Z,1.48
2019-04-11T04:45:23.926Z,1.44
2019-04-11T04:46:34.782Z,1.44
2019-04-11T04:47:32.510Z,1.49
2019-04-11T04:48:26.725Z,1.56
2019-04-11T04:49:23.689Z,1.57
2019-04-11T04:50:24.129Z,1.60
2019-04-11T04:51:24.323Z,1.62
2019-04-11T04:52:22.470Z,1.62
2019-04-11T04:53:25.728Z,1.63
2019-04-11T04:54:24.056Z,1.64
2019-04-11T04:55:23.605Z,1.62
2019-04-11T04:56:26.446Z,1.67
2019-04-11T04:57:24.486Z,1.71
2019-04-11T04:58:24.334Z,1.78
2019-04-11T04:59:23.632Z,1.75
2019-04-11T05:00:23.416Z,1.67
2019-04-11T05:01:23.766Z,1.67
2019-04-11T05:02:24.091Z,1.81
2019-04-11T05:03:24.069Z,1.78
2019-04-11T05:04:23.494Z,1.81
2019-04-11T05:05:24.189Z,1.74
2019-04-11T05:06:23.979Z,1.81
2019-04-11T05:07:23.564Z,1.78
2019-04-11T05:08:22.846Z,1.80
2019-04-11T05:09:23.550Z,1.78
2019-04-11T05:10:22.319Z,1.75
2019-04-11T05:11:23.176Z,1.78
2019-04-11T05:12:22.620Z,1.81
2019-04-11T05:13:23.731Z,1.87
2019-04-11T05:14:23.340Z,1.85
2019-04-11T05:15:22.234Z,1.89
2019-04-11T05:16:22.228Z,1.91
2019-04-11T05:17:23.115Z,1.82
2019-04-11T05:18:22.209Z,1.89
2019-04-11T05:19:23.715Z,1.80
2019-04-11T05:20:22.178Z,1.91
2019-04-11T05:21:23.265Z,1.82
2019-04-11T05:22:22.465Z,1.95
2019-04-11T05:23:23.434Z,1.99
2019-04-11T05:24:22.905Z,2.01
2019-04-11T05:25:22.293Z,2.03
2019-04-11T05:26:22.166Z,2.01
2019-04-11T05:27:22.935Z,2.00
2019-04-11T05:28:22.075Z,2.03
2019-04-11T05:29:22.072Z,2.10
2019-04-11T05:30:23.132Z,2.10
2019-04-11T05:31:22.698Z,2.11
2019-04-11T05:32:22.052Z,2.15
2019-04-11T05:33:22.943Z,2.19
2019-04-11T05:34:22.027Z,2.07
2019-04-11T05:35:22.796Z,2.10
2019-04-11T05:36:22.740Z,2.03
2019-04-11T05:37:22.803Z,2.04
2019-04-11T05:38:22.989Z,2.06
2019-04-11T05:39:21.965Z,2.17
2019-04-11T05:40:21.978Z,2.17
2019-04-11T05:41:23.083Z,2.15
2019-04-11T05:42:25.244Z,2.21
2019-04-11T05:43:28.133Z,2.28
2019-04-11T05:44:23.131Z,2.24
2019-04-11T05:45:24.443Z,2.32
2019-04-11T05:46:31.134Z,2.39
2019-04-11T05:47:23.403Z,2.37
2019-04-11T05:48:24.039Z,2.39
2019-04-11T05:49:23.182Z,2.45
2019-04-11T05:50:22.188Z,2.47
2019-04-11T05:51:23.498Z,2.54
2019-04-11T05:52:21.891Z,2.53
2019-04-11T05:53:22.790Z,2.54
2019-04-11T05:54:21.797Z,2.45
2019-04-11T05:55:21.848Z,2.48
2019-04-11T05:56:21.850Z,2.51
2019-04-11T05:57:24.242Z,2.65
2019-04-11T05:58:22.781Z,2.63
2019-04-11T05:59:23.923Z,2.60
2019-04-11T06:00:21.760Z,2.63
2019-04-11T06:01:22.384Z,2.66
2019-04-11T06:02:21.731Z,2.66
2019-04-11T06:03:21.787Z,2.71
2019-04-11T06:04:24.117Z,2.66
2019-04-11T06:05:24.505Z,2.72
2019-04-11T06:06:22.754Z,2.72
2019-04-11T06:07:21.652Z,2.72
2019-04-11T06:08:26.948Z,2.69
2019-04-11T06:09:22.968Z,2.78
2019-04-11T06:10:21.920Z,2.78
2019-04-11T06:11:24.067Z,2.82
2019-04-11T06:12:21.659Z,2.75
2019-04-11T06:13:22.667Z,2.72
2019-04-11T06:14:22.839Z,2.82
2019-04-11T06:15:21.599Z,2.66
2019-04-11T06:16:21.540Z,2.79
2019-04-11T06:17:21.887Z,2.84
2019-04-11T06:18:26.985Z,2.93
2019-04-11T06:19:22.924Z,2.93
2019-04-11T06:20:22.059Z,2.91
2019-04-11T06:21:22.050Z,2.91
2019-04-11T06:22:21.557Z,2.93
2019-04-11T06:23:21.487Z,3.04
2019-04-11T06:24:21.472Z,3.05
2019-04-11T06:25:21.457Z,3.11
2019-04-11T06:26:22.906Z,3.29
2019-04-11T06:27:22.232Z,3.22
2019-04-11T06:28:22.199Z,3.14
2019-04-11T06:29:25.900Z,3.18
2019-04-11T06:30:22.427Z,3.26
2019-04-11T06:31:22.039Z,3.18
2019-04-11T06:32:21.617Z,3.23
2019-04-11T06:33:22.607Z,3.12
2019-04-11T06:34:24.916Z,3.23
2019-04-11T06:35:22.017Z,3.22
2019-04-11T06:36:21.340Z,3.26
2019-04-11T06:37:21.375Z,3.30
2019-04-11T06:38:21.319Z,3.30
2019-04-11T06:39:21.302Z,3.36
2019-04-11T06:40:21.324Z,3.45
2019-04-11T06:41:22.139Z,3.51
2019-04-11T06:42:24.105Z,3.51
2019-04-11T06:43:21.263Z,3.52
2019-04-11T06:44:21.628Z,3.45
2019-04-11T06:45:21.809Z,3.55
2019-04-11T06:46:21.259Z,3.54
2019-04-11T06:47:21.250Z,3.56
2019-04-11T06:48:23.327Z,3.69
2019-04-11T06:49:22.426Z,3.69
2019-04-11T06:50:21.180Z,3.67
2019-04-11T06:51:21.984Z,3.67
2019-04-11T06:52:21.163Z,3.80
2019-04-11T06:53:21.227Z,3.72
2019-04-11T06:54:21.209Z,3.88
2019-04-11T06:55:21.136Z,3.90
2019-04-11T06:56:21.135Z,3.98
2019-04-11T06:57:21.597Z,3.91
2019-04-11T06:58:21.495Z,3.92
2019-04-11T06:59:21.750Z,4.05
2019-04-11T07:00:23.083Z,3.99
2019-04-11T07:01:22.308Z,4.06
2019-04-11T07:02:23.286Z,4.13
2019-04-11T07:03:25.539Z,4.08
2019-04-11T07:04:22.050Z,4.12
2019-04-11T07:05:21.010Z,4.09
2019-04-11T07:06:21.725Z,4.10
2019-04-11T07:07:21.055Z,4.16
2019-04-11T07:08:22.263Z,4.10
2019-04-11T07:09:22.190Z,4.20
2019-04-11T07:10:22.209Z,4.23
2019-04-11T07:11:21.005Z,4.26
2019-04-11T07:12:22.091Z,4.26
2019-04-11T07:13:20.926Z,4.23
2019-04-11T07:14:20.934Z,4.27
2019-04-11T07:15:21.043Z,4.26
2019-04-11T07:16:21.918Z,4.20
2019-04-11T07:17:21.156Z,4.34
2019-04-11T07:18:20.900Z,4.39
2019-04-11T07:19:21.883Z,4.46
2019-04-11T07:20:20.900Z,4.46
2019-04-11T07:21:21.217Z,4.51
2019-04-11T07:22:20.978Z,4.51
2019-04-11T07:23:20.814Z,4.51
2019-04-11T07:24:20.802Z,4.46
2019-04-11T07:25:20.790Z,4.48
2019-04-11T07:26:20.927Z,4.51
2019-04-11T07:27:20.834Z,4.53
2019-04-11T07:28:20.841Z,4.61
2019-04-11T07:29:21.557Z,4.71
2019-04-11T07:30:22.808Z,4.71
2019-04-11T07:31:21.623Z,4.67
2019-04-11T07:32:22.151Z,4.71
2019-04-11T07:33:20.749Z,4.72
2019-04-11T07:34:21.295Z,4.75
2019-04-11T07:35:21.444Z,4.66
2019-04-11T07:36:21.078Z,4.74
2019-04-11T07:37:21.334Z,4.78
2019-04-11T07:38:21.011Z,4.82
2019-04-11T07:39:20.703Z,4.91
2019-04-11T07:40:21.844Z,4.91
2019-04-11T07:41:21.625Z,4.94
2019-04-11T07:42:21.296Z,4.93
2019-04-11T07:43:20.625Z,5.00
2019-04-11T07:44:21.714Z,5.00
2019-04-11T07:45:20.999Z,5.03
2019-04-11T07:46:20.623Z,5.09
2019-04-11T07:47:24.492Z,5.11
2019-04-11T07:48:21.590Z,5.15
2019-04-11T07:49:20.555Z,5.04
2019-04-11T07:50:21.345Z,5.19
2019-04-11T07:51:20.527Z,5.21
2019-04-11T07:52:20.563Z,5.29
2019-04-11T07:53:21.652Z,5.32
2019-04-11T07:54:20.583Z,5.37
2019-04-11T07:55:21.049Z,5.41
2019-04-11T07:56:20.851Z,5.40
2019-04-11T07:57:20.500Z,5.40
2019-04-11T07:58:21.534Z,5.34
2019-04-11T07:59:21.530Z,5.59
2019-04-11T08:00:33.227Z,5.59
2019-04-11T08:01:22.188Z,5.69
2019-04-11T08:02:22.371Z,5.67
2019-04-11T08:03:21.397Z,5.76
2019-04-11T08:04:21.578Z,5.84
2019-04-11T08:05:21.525Z,5.85
2019-04-11T08:06:20.369Z,5.84
2019-04-11T08:07:20.335Z,5.82
2019-04-11T08:08:21.453Z,5.82
2019-04-11T08:09:20.369Z,5.93
2019-04-11T08:10:20.607Z,5.87
2019-04-11T08:11:20.303Z,5.97
2019-04-11T08:12:21.340Z,5.94
2019-04-11T08:13:20.692Z,5.95
2019-04-11T08:14:20.337Z,6.06
2019-04-11T08:15:20.292Z,6.12
2019-04-11T08:16:20.427Z,6.08
2019-04-11T08:17:28.022Z,6.15
2019-04-11T08:18:21.236Z,6.16
2019-04-11T08:19:21.049Z,6.09
2019-04-11T08:20:21.315Z,6.13
2019-04-11T08:21:20.198Z,6.25
2019-04-11T08:22:21.010Z,6.21
2019-04-11T08:23:21.324Z,6.35
2019-04-11T08:24:20.507Z,6.32
2019-04-11T08:25:20.907Z,6.34
2019-04-11T08:26:20.126Z,6.37
2019-04-11T08:27:20.161Z,6.40
2019-04-11T08:28:20.590Z,6.46
2019-04-11T08:29:20.192Z,6.37
2019-04-11T08:30:20.111Z,6.43
2019-04-11T08:31:20.082Z,6.43
2019-04-11T08:32:20.118Z,6.52
2019-04-11T08:33:20.277Z,6.60
2019-04-11T08:34:20.790Z,6.60
2019-04-11T08:35:20.048Z,6.56
2019-04-11T08:36:20.080Z,6.57
2019-04-11T08:37:21.116Z,6.68
2019-04-11T08:38:20.369Z,6.74
2019-04-11T08:39:20.677Z,6.65
2019-04-11T08:40:19.994Z,6.75
2019-04-11T08:41:20.119Z,6.85
2019-04-11T08:42:21.220Z,6.83
2019-04-11T08:43:21.316Z,6.82
2019-04-11T08:44:19.991Z,6.92
2019-04-11T08:45:19.950Z,6.96
2019-04-11T08:46:20.639Z,6.86
2019-04-11T08:47:20.410Z,6.88
2019-04-11T08:48:21.198Z,6.96
2019-04-11T08:49:19.870Z,6.93
2019-04-11T08:50:20.638Z,7.03
2019-04-11T08:51:20.069Z,7.03
2019-04-11T08:52:20.932Z,7.03
2019-04-11T08:53:20.606Z,7.03
2019-04-11T08:54:19.841Z,7.15
2019-04-11T08:55:20.780Z,7.11
2019-04-11T08:56:20.862Z,7.11
2019-04-11T08:57:20.057Z,7.21
2019-04-11T08:58:20.502Z,7.16
2019-04-11T08:59:20.166Z,7.24
2019-04-11T09:00:19.947Z,7.16
2019-04-11T09:01:20.145Z,7.24
2019-04-11T09:02:20.576Z,7.19
2019-04-11T09:03:19.824Z,7.13
2019-04-11T09:04:19.709Z,7.16
2019-04-11T09:05:20.469Z,7.21
2019-04-11T09:06:20.828Z,7.28
2019-04-11T09:07:19.709Z,7.24
2019-04-11T09:08:20.367Z,7.34
2019-04-11T09:09:20.920Z,7.24
2019-04-11T09:10:20.044Z,7.25
2019-04-11T09:11:20.480Z,7.29
2019-04-11T09:12:22.537Z,7.37
2019-04-11T09:13:20.029Z,7.40
2019-04-11T09:14:22.574Z,7.43
2019-04-11T09:15:19.601Z,7.39
2019-04-11T09:16:19.585Z,7.36
2019-04-11T09:17:21.367Z,7.46
2019-04-11T09:18:19.703Z,7.49
2019-04-11T09:19:20.939Z,7.49
2019-04-11T09:20:19.587Z,7.50
2019-04-11T09:21:20.269Z,7.42
2019-04-11T09:22:20.523Z,7.44
2019-04-11T09:23:19.794Z,7.42
2019-04-11T09:24:19.527Z,7.52
2019-04-11T09:25:19.518Z,7.47
2019-04-11T09:26:20.186Z,7.58
2019-04-11T09:27:20.462Z,7.52
2019-04-11T09:28:19.749Z,7.44
2019-04-11T09:29:19.508Z,7.55
2019-04-11T09:30:19.503Z,7.55
2019-04-11T09:31:19.473Z,7.66
2019-04-11T09:32:20.156Z,7.61
2019-04-11T09:33:20.739Z,7.81
2019-04-11T09:34:19.674Z,7.88
2019-04-11T09:35:19.402Z,7.86
2019-04-11T09:36:19.758Z,7.92
2019-04-11T09:37:20.416Z,7.94
2019-04-11T09:38:19.387Z,7.88
2019-04-11T09:39:19.432Z,7.96
2019-04-11T09:40:19.554Z,7.99
2019-04-11T09:41:20.521Z,7.99
2019-04-11T09:42:21.389Z,8.06
2019-04-11T09:43:19.874Z,8.02
2019-04-11T09:44:20.303Z,8.09
2019-04-11T09:45:19.593Z,8.06
2019-04-11T09:46:19.281Z,8.16
2019-04-11T09:47:19.941Z,8.14
2019-04-11T09:48:19.874Z,8.26
2019-04-11T09:49:20.317Z,8.26
2019-04-11T09:50:20.307Z,8.17
2019-04-11T09:51:19.252Z,8.16
2019-04-11T09:52:19.241Z,8.14
2019-04-11T09:53:20.424Z,8.21
2019-04-11T09:54:19.779Z,8.24
2019-04-11T09:55:19.223Z,8.26
2019-04-11T09:56:19.185Z,8.28
2019-04-11T09:57:19.149Z,8.38
2019-04-11T09:58:19.634Z,8.41
2019-04-11T09:59:19.187Z,8.39
2019-04-11T10:00:19.156Z,8.46
2019-04-11T10:01:20.253Z,8.53
2019-04-11T10:02:19.186Z,8.47
2019-04-11T10:03:19.711Z,8.35
2019-04-11T10:04:19.103Z,8.44
2019-04-11T10:05:20.152Z,8.32
2019-04-11T10:06:19.467Z,8.35
2019-04-11T10:07:19.636Z,8.24
2019-04-11T10:08:19.086Z,8.29
2019-04-11T10:09:19.716Z,8.23
2019-04-11T10:10:19.118Z,8.14
2019-04-11T10:11:19.019Z,8.20
2019-04-11T10:12:20.026Z,8.26
2019-04-11T10:13:19.015Z,8.19
2019-04-11T10:14:19.726Z,8.29
2019-04-11T10:15:18.976Z,8.26
2019-04-11T10:16:19.930Z,8.32
2019-04-11T10:17:22.289Z,8.29
2019-04-11T10:18:25.242Z,8.41
2019-04-11T10:19:20.062Z,8.42
2019-04-11T10:20:20.258Z,8.50
2019-04-11T10:21:19.358Z,8.59
2019-04-11T10:22:18.891Z,8.62
2019-04-11T10:23:18.931Z,8.62
2019-04-11T10:24:20.782Z,8.72
2019-04-11T10:25:19.136Z,8.80
2019-04-11T10:26:20.149Z,8.71
2019-04-11T10:27:18.845Z,8.83
2019-04-11T10:28:19.543Z,8.86
2019-04-11T10:29:19.276Z,8.85
2019-04-11T10:30:19.492Z,8.81
2019-04-11T10:31:20.213Z,8.92
2019-04-11T10:32:19.162Z,8.98
2019-04-11T10:33:18.795Z,8.92
2019-04-11T10:34:19.632Z,8.93
2019-04-11T10:35:20.110Z,8.93
2019-04-11T10:36:19.001Z,8.96
2019-04-11T10:37:19.920Z,8.96
2019-04-11T10:38:18.692Z,9.06
2019-04-11T10:39:19.768Z,9.06
2019-04-11T10:40:21.169Z,9.08
2019-04-11T10:41:18.760Z,9.06
2019-04-11T10:42:18.673Z,9.09
2019-04-11T10:43:18.681Z,9.09
2019-04-11T10:44:18.636Z,9.06
2019-04-11T10:45:18.606Z,9.06
2019-04-11T10:46:19.605Z,9.03
2019-04-11T10:47:18.594Z,9.04
2019-04-11T10:48:18.613Z,9.04
2019-04-11T10:49:18.570Z,9.01
2019-04-11T10:50:19.580Z,9.12
2019-04-11T10:51:18.562Z,9.15
2019-04-11T10:52:18.567Z,9.14
2019-04-11T10:53:19.452Z,9.12
2019-04-11T10:54:19.660Z,9.15
2019-04-11T10:55:19.539Z,9.23
2019-04-11T10:56:18.492Z,9.18
2019-04-11T10:57:18.508Z,9.24
2019-04-11T10:58:18.530Z,9.16
2019-04-11T10:59:19.496Z,9.32
2019-04-11T11:00:18.905Z,9.34
2019-04-11T11:01:18.445Z,9.29
2019-04-11T11:02:18.433Z,9.32
2019-04-11T11:03:18.417Z,9.29
2019-04-11T11:04:18.411Z,9.44
2019-04-11T11:05:19.451Z,9.42
2019-04-11T11:06:18.412Z,9.40
2019-04-11T11:07:18.488Z,9.40
2019-04-11T11:08:19.409Z,9.27
2019-04-11T11:09:18.353Z,9.24
2019-04-11T11:10:19.475Z,9.27
2019-04-11T11:11:18.370Z,9.24
2019-04-11T11:12:19.059Z,9.26
2019-04-11T11:13:18.343Z,9.22
2019-04-11T11:14:18.789Z,9.24
2019-04-11T11:15:18.287Z,9.34
2019-04-11T11:16:18.274Z,9.36
2019-04-11T11:17:43.872Z,9.34
2019-04-11T11:18:54.166Z,9.32
2019-04-11T11:19:40.287Z,9.27
2019-04-11T11:20:26.051Z,9.30
2019-04-11T11:21:19.759Z,9.22
2019-04-11T11:22:18.871Z,9.26
2019-04-11T11:23:18.349Z,9.26
2019-04-11T11:24:18.192Z,9.14
2019-04-11T11:25:19.546Z,9.18
2019-04-11T11:26:22.556Z,9.11
2019-04-11T11:27:20.115Z,9.14
2019-04-11T11:28:18.151Z,9.15
2019-04-11T11:29:18.908Z,9.14
2019-04-11T11:30:18.792Z,9.16
2019-04-11T11:31:18.219Z,9.14
2019-04-11T11:32:18.963Z,9.04
2019-04-11T11:33:18.248Z,8.99
2019-04-11T11:34:20.294Z,9.04
2019-04-11T11:35:22.435Z,9.08
2019-04-11T11:36:19.413Z,9.04
2019-04-11T11:37:18.179Z,9.06
2019-04-11T11:38:18.021Z,9.06
2019-04-11T11:39:19.243Z,8.99
2019-04-11T11:40:18.879Z,8.98
2019-04-11T11:41:18.455Z,8.93
2019-04-11T11:42:18.007Z,8.90
2019-04-11T11:43:19.027Z,8.93
2019-04-11T11:44:19.235Z,8.95
2019-04-11T11:45:17.962Z,8.86
2019-04-11T11:46:19.364Z,8.90
2019-04-11T11:47:17.968Z,8.92
2019-04-11T11:48:20.682Z,8.98
2019-04-11T11:49:36.326Z,8.89
2019-04-11T11:50:21.779Z,8.93
2019-04-11T11:51:22.682Z,8.92
2019-04-11T11:52:19.324Z,8.92
2019-04-11T11:53:18.496Z,8.90
2019-04-11T11:54:17.869Z,8.90
2019-04-11T11:55:20.063Z,8.92
2019-04-11T11:56:17.896Z,8.99
2019-04-11T11:57:18.297Z,8.86
2019-04-11T11:58:18.758Z,8.99
2019-04-11T11:59:18.260Z,8.95
2019-04-11T12:00:17.794Z,8.92
2019-04-11T12:01:17.830Z,9.04
2019-04-11T12:02:19.789Z,9.04
2019-04-11T12:03:17.762Z,9.12
2019-04-11T12:04:18.884Z,9.12
2019-04-11T12:05:18.516Z,9.22
2019-04-11T12:06:22.282Z,9.15
2019-04-11T12:07:18.982Z,9.23
2019-04-11T12:08:18.198Z,9.11
2019-04-11T12:09:18.361Z,9.24
2019-04-11T12:10:17.664Z,9.22
2019-04-11T12:11:17.871Z,9.19
2019-04-11T12:12:17.734Z,9.26
2019-04-11T12:13:17.662Z,9.15
2019-04-11T12:14:18.076Z,9.06
2019-04-11T12:15:20.581Z,9.12
2019-04-11T12:16:21.363Z,9.22
2019-04-11T12:17:18.607Z,9.06
2019-04-11T12:18:19.752Z,9.08
2019-04-11T12:19:20.353Z,9.09
2019-04-11T12:20:18.579Z,9.12
2019-04-11T12:21:21.817Z,9.12
2019-04-11T12:22:18.543Z,9.14
2019-04-11T12:23:17.614Z,9.18
2019-04-11T12:24:17.667Z,9.09
2019-04-11T12:25:17.555Z,9.15
2019-04-11T12:26:18.428Z,9.11
2019-04-11T12:27:18.421Z,9.24
2019-04-11T12:28:17.558Z,9.15
2019-04-11T12:29:18.569Z,9.22
2019-04-11T12:30:20.864Z,9.24
2019-04-11T12:31:19.509Z,9.26
2019-04-11T12:32:17.447Z,9.26
2019-04-11T12:33:17.432Z,9.36
2019-04-11T12:34:18.545Z,9.34
2019-04-11T12:35:17.424Z,9.41
2019-04-11T12:36:18.520Z,9.42
2019-04-11T12:37:19.497Z,9.41
2019-04-11T12:38:17.435Z,9.37
2019-04-11T12:39:17.397Z,9.48
2019-04-11T12:40:17.400Z,9.52
2019-04-11T12:41:19.968Z,9.54
2019-04-11T12:42:17.335Z,9.54
2019-04-11T12:43:17.354Z,9.69
2019-04-11T12:44:17.337Z,9.60
2019-04-11T12:45:17.358Z,9.63
2019-04-11T12:46:17.320Z,9.66
2019-04-11T12:47:17.341Z,9.70
2019-04-11T12:48:17.510Z,9.75
2019-04-11T12:49:17.271Z,9.72
2019-04-11T12:50:17.274Z,9.72
2019-04-11T12:51:17.230Z,9.80
2019-04-11T12:52:17.235Z,9.73
2019-04-11T12:53:17.244Z,9.78
2019-04-11T12:54:17.319Z,9.77
2019-04-11T12:55:17.331Z,9.67
2019-04-11T12:56:17.204Z,9.77
2019-04-11T12:57:17.177Z,9.65
2019-04-11T12:58:17.227Z,9.69
2019-04-11T12:59:17.183Z,9.70
2019-04-11T13:00:17.121Z,9.70
2019-04-11T13:01:17.122Z,9.65
2019-04-11T13:02:17.138Z,9.75
2019-04-11T13:03:17.111Z,9.80
2019-04-11T13:04:17.104Z,9.77
2019-04-11T13:05:17.092Z,9.70
2019-04-11T13:06:17.080Z,9.84
2019-04-11T13:07:17.091Z,9.87
2019-04-11T13:08:17.091Z,9.78
2019-04-11T13:09:17.076Z,9.80
2019-04-11T13:10:17.056Z,9.70
2019-04-11T13:11:17.036Z,9.72
2019-04-11T13:12:17.024Z,9.63
2019-04-11T13:13:17.037Z,9.62
2019-04-11T13:14:16.962Z,9.77
2019-04-11T13:15:17.013Z,9.63
2019-04-11T13:16:16.986Z,9.69
2019-04-11T13:17:16.954Z,9.62
2019-04-11T13:18:16.989Z,9.69
2019-04-11T13:19:16.966Z,9.75
2019-04-11T13:20:16.919Z,9.75
2019-04-11T13:21:16.905Z,9.70